Nichiryu Maru — JG5632 — position and weather

sailwx.info

Track history (hours):
 
Tides and Currents Weather Stations Pressure Air Temp Water Temp Dewpoint Dewpoint Depression Visibility Wind Speed Wind Dir Waves Ship Positions

Nichiryu Maru

Last reported at 2014-Sep-19 15:33 UTC. Time now 2014-Sep-21 10:03 UTC.
Position N 33°58' E 132°42'.

Length 158 m; draft 6.5 m.

Type: Cargo ship. MMSI: 43100939.

Date/timePositionNaut miles runAvg speedWind from/ knotsBaromVisibWave heightAir tempDewpointWater temp
2014-Sep-19 15:33N 33°58' E 132°42'11516.4
2014-Sep-19 08:33N 34°35' E 134°53'1818.3
2014-Sep-19 07:34N 34°37' E 135°15'4 3.7
2014-Sep-19 06:30N 34°41' E 135°13'0 0.0
2014-Sep-19 05:30N 34°41' E 135°13'0 0.0
2014-Sep-19 04:33N 34°41' E 135°13'8 7.6
2014-Sep-19 03:34N 34°33' E 135°13'1918.4
2014-Sep-19 02:33N 34°18' E 134°60'1818.0
2014-Sep-19 01:33N 34°00' E 135°01'22415.7
2014-Sep-18 11:19N 34°55' E 139°24'1720.9
2014-Sep-18 10:29N 35°05' E 139°41'1313.8
2014-Sep-18 09:34N 35°18' E 139°44'4 2.2
2014-Sep-18 07:32N 35°19' E 139°39'0 0.0
2014-Sep-18 06:32N 35°19' E 139°39'0 0.0
2014-Sep-18 05:32N 35°19' E 139°39'0 0.0
2014-Sep-18 04:32N 35°19' E 139°39'2 1.7
2014-Sep-18 03:33N 35°19' E 139°41'1110.8
2014-Sep-18 02:34N 35°09' E 139°46'39610.3
2014-Sep-16 12:13N 32°50' E 132°19'2011.8
2014-Sep-16 10:33N 32°41' E 132°40'1818.4
2014-Sep-16 09:34N 32°42' E 133°02'3313.9
2014-Sep-16 07:10N 33°07' E 133°28'32515.8
2014-Sep-15 10:33N 35°02' E 139°34'1615.8
2014-Sep-15 09:34N 35°15' E 139°46'7 7.2
2014-Sep-15 08:33N 35°19' E 139°39'0 0.0
2014-Sep-15 07:30N 35°19' E 139°39'0 0.0
2014-Sep-15 06:30N 35°19' E 139°39'0 0.0
2014-Sep-15 05:33N 35°19' E 139°39'0 0.0
2014-Sep-15 04:30N 35°19' E 139°39'0 0.0
2014-Sep-15 03:27N 35°19' E 139°39'0 0.0
2014-Sep-15 02:33N 35°19' E 139°39'0 0.0
2014-Sep-15 01:33N 35°19' E 139°39'0 0.0
2014-Sep-15 00:33N 35°19' E 139°39'0 0.0
2014-Sep-14 23:30N 35°19' E 139°39'3 3.3
2014-Sep-14 22:33N 35°19' E 139°43'1010.2
2014-Sep-14 21:33N 35°09' E 139°46'1514.8
2014-Sep-14 20:33N 34°57' E 139°36'6014.4
2014-Sep-14 16:22N 34°28' E 138°31'  
2014-Sep-12 09:09N 34°34' E 134°48'1117.7
2014-Sep-12 08:33N 34°38' E 134°60'1413.7
2014-Sep-12 07:33N 34°38' E 135°16'3 3.1
2014-Sep-12 06:29N 34°41' E 135°13'0 0.0
2014-Sep-12 05:23N 34°41' E 135°13'0 0.0
2014-Sep-12 04:23N 34°41' E 135°13'0 0.2
2014-Sep-12 03:33N 34°41' E 135°14'1111.3
2014-Sep-12 02:33N 34°30' E 135°11'1818.1
2014-Sep-12 01:33N 34°14' E 134°59'22315.8
2014-Sep-11 11:22N 34°57' E 139°26'1619.8
2014-Sep-11 10:33N 35°06' E 139°42'1212.2
2014-Sep-11 09:33N 35°19' E 139°44'4 3.6
2014-Sep-11 08:33N 35°19' E 139°39'0 0.0
2014-Sep-11 05:27N 35°19' E 139°39'0 0.0
2014-Sep-11 04:27N 35°19' E 139°39'1 1.4
2014-Sep-11 03:32N 35°19' E 139°41'1010.7
2014-Sep-11 02:34N 35°10' E 139°46'39618.0
2014-Sep-10 04:33N 33°02' E 132°14'  
Track history (hours):
 
Tides and Currents Weather Stations Pressure Air Temp Water Temp Dewpoint Dewpoint Depression Visibility Wind Speed Wind Dir Waves Ship Positions

Nichiryu Maru

Last reported at 2014-Sep-19 15:33 UTC. Time now 2014-Sep-21 10:03 UTC.
Position N 33°58' E 132°42'.

Length 158 m; draft 6.5 m.

Type: Cargo ship. MMSI: 43100939.

Date/timePositionNaut miles runAvg speedWind from/ knotsBaromVisibWave heightAir tempDewpointWater temp
2014-Sep-19 15:33N 33°58' E 132°42'11516.4
2014-Sep-19 08:33N 34°35' E 134°53'1818.3
2014-Sep-19 07:34N 34°37' E 135°15'4 3.7
2014-Sep-19 06:30N 34°41' E 135°13'0 0.0
2014-Sep-19 05:30N 34°41' E 135°13'0 0.0
2014-Sep-19 04:33N 34°41' E 135°13'8 7.6
2014-Sep-19 03:34N 34°33' E 135°13'1918.4
2014-Sep-19 02:33N 34°18' E 134°60'1818.0
2014-Sep-19 01:33N 34°00' E 135°01'22415.7
2014-Sep-18 11:19N 34°55' E 139°24'1720.9
2014-Sep-18 10:29N 35°05' E 139°41'1313.8
2014-Sep-18 09:34N 35°18' E 139°44'4 2.2
2014-Sep-18 07:32N 35°19' E 139°39'0 0.0
2014-Sep-18 06:32N 35°19' E 139°39'0 0.0
2014-Sep-18 05:32N 35°19' E 139°39'0 0.0
2014-Sep-18 04:32N 35°19' E 139°39'2 1.7
2014-Sep-18 03:33N 35°19' E 139°41'1110.8
2014-Sep-18 02:34N 35°09' E 139°46'39610.3
2014-Sep-16 12:13N 32°50' E 132°19'2011.8
2014-Sep-16 10:33N 32°41' E 132°40'1818.4
2014-Sep-16 09:34N 32°42' E 133°02'3313.9
2014-Sep-16 07:10N 33°07' E 133°28'32515.8
2014-Sep-15 10:33N 35°02' E 139°34'1615.8
2014-Sep-15 09:34N 35°15' E 139°46'7 7.2
2014-Sep-15 08:33N 35°19' E 139°39'0 0.0
2014-Sep-15 07:30N 35°19' E 139°39'0 0.0
2014-Sep-15 06:30N 35°19' E 139°39'0 0.0
2014-Sep-15 05:33N 35°19' E 139°39'0 0.0
2014-Sep-15 04:30N 35°19' E 139°39'0 0.0
2014-Sep-15 03:27N 35°19' E 139°39'0 0.0
2014-Sep-15 02:33N 35°19' E 139°39'0 0.0
2014-Sep-15 01:33N 35°19' E 139°39'0 0.0
2014-Sep-15 00:33N 35°19' E 139°39'0 0.0
2014-Sep-14 23:30N 35°19' E 139°39'3 3.3
2014-Sep-14 22:33N 35°19' E 139°43'1010.2
2014-Sep-14 21:33N 35°09' E 139°46'1514.8
2014-Sep-14 20:33N 34°57' E 139°36'6014.4
2014-Sep-14 16:22N 34°28' E 138°31'  
2014-Sep-12 09:09N 34°34' E 134°48'1117.7
2014-Sep-12 08:33N 34°38' E 134°60'1413.7
2014-Sep-12 07:33N 34°38' E 135°16'3 3.1
2014-Sep-12 06:29N 34°41' E 135°13'0 0.0
2014-Sep-12 05:23N 34°41' E 135°13'0 0.0
2014-Sep-12 04:23N 34°41' E 135°13'0 0.2
2014-Sep-12 03:33N 34°41' E 135°14'1111.3
2014-Sep-12 02:33N 34°30' E 135°11'1818.1
2014-Sep-12 01:33N 34°14' E 134°59'22315.8
2014-Sep-11 11:22N 34°57' E 139°26'1619.8
2014-Sep-11 10:33N 35°06' E 139°42'1212.2
2014-Sep-11 09:33N 35°19' E 139°44'4 3.6
2014-Sep-11 08:33N 35°19' E 139°39'0 0.0
2014-Sep-11 05:27N 35°19' E 139°39'0 0.0
2014-Sep-11 04:27N 35°19' E 139°39'1 1.4
2014-Sep-11 03:32N 35°19' E 139°41'1010.7
2014-Sep-11 02:34N 35°10' E 139°46'39618.0
2014-Sep-10 04:33N 33°02' E 132°14'  

Dump ship's entire track history